Time;durP1;ratioP1;P1;durP2;ratioP2;P2;SDS_P1;SDS_P2;PMS_P1;PMS_P2;Temp;Humidity;BMP_temperature;BMP_pressure;BME280_temperature;BME280_humidity;BME280_pressure;Samples;Min_cycle;Max_cycle;Signal;HPM_P1;HPM_P2
2023/09/22 04:02:05;;;;;;;0.90;0.80;;;17.00;97.30;;;;;;5353678;23;20500;-86
2023/09/22 04:04:33;;;;;;;1.00;0.90;;;17.00;97.30;;;;;;5001016;28;20446;-84
2023/09/22 04:06:59;;;;;;;0.90;0.80;;;17.00;97.30;;;;;;5011617;28;20868;-85
2023/09/22 04:09:25;;;;;;;1.00;0.90;;;17.00;97.30;;;;;;5010169;28;20729;-85
2023/09/22 04:11:52;;;;;;;1.00;0.90;;;17.00;97.30;;;;;;5020003;28;20501;-86
2023/09/22 04:14:20;;;;;;;1.10;1.00;;;16.90;97.30;;;;;;5030009;28;20419;-86
2023/09/22 04:16:46;;;;;;;0.90;0.80;;;16.90;97.30;;;;;;5024126;28;20521;-86
2023/09/22 04:19:14;;;;;;;1.00;0.90;;;16.90;97.30;;;;;;5023246;28;20427;-85
2023/09/22 04:21:44;;;;;;;1.10;1.00;;;16.80;97.30;;;;;;5026277;28;20444;-87
2023/09/22 04:24:20;;;;;;;1.47;1.37;;;16.80;97.30;;;;;;5029604;28;20438;-86
2023/09/22 04:26:49;;;;;;;1.10;1.00;;;16.80;97.30;;;;;;5030456;28;20442;-86
2023/09/22 04:29:14;;;;;;;0.90;0.80;;;16.80;97.30;;;;;;5030758;28;20450;-84
2023/09/22 04:31:48;;;;;;;1.00;0.90;;;16.70;97.30;;;;;;5033104;28;20829;-86
2023/09/22 04:34:14;;;;;;;1.00;0.90;;;16.70;97.30;;;;;;5022575;28;20192;-84
2023/09/22 04:36:40;;;;;;;1.10;1.00;;;16.70;97.30;;;;;;5039568;23;20491;-85
2023/09/22 04:39:08;;;;;;;0.90;0.80;;;16.70;97.30;;;;;;5011443;28;20435;-87
2023/09/22 04:41:33;;;;;;;0.90;0.80;;;16.60;97.30;;;;;;5011328;28;20180;-87
2023/09/22 04:43:59;;;;;;;0.90;0.80;;;16.60;97.30;;;;;;5011577;28;20420;-87
2023/09/22 04:46:25;;;;;;;1.67;1.57;;;16.70;97.30;;;;;;5013505;28;20213;-87
2023/09/22 04:48:51;;;;;;;1.07;0.97;;;16.60;97.30;;;;;;5026637;28;20916;-86
2023/09/22 04:51:16;;;;;;;1.17;1.07;;;16.70;97.30;;;;;;5022546;28;20780;-87
2023/09/22 04:53:42;;;;;;;1.00;0.90;;;16.70;97.30;;;;;;5038539;28;20236;-87
2023/09/22 04:56:08;;;;;;;0.93;0.83;;;16.70;97.30;;;;;;5036416;28;20216;-88
2023/09/22 04:58:34;;;;;;;0.90;0.80;;;16.70;97.30;;;;;;5032590;28;20207;-86
2023/09/22 05:01:01;;;;;;;0.90;0.80;;;16.60;97.30;;;;;;5034824;28;20275;-87
2023/09/22 05:03:30;;;;;;;0.90;0.80;;;16.60;97.30;;;;;;5031828;28;20423;-87
2023/09/22 05:06:06;;;;;;;1.00;0.90;;;16.60;97.30;;;;;;5015438;28;20462;-90
2023/09/22 05:08:33;;;;;;;1.10;1.00;;;16.60;97.30;;;;;;5026044;28;20473;-89
2023/09/22 05:11:03;;;;;;;1.10;1.00;;;16.60;97.30;;;;;;5023290;28;20989;-89
2023/09/22 05:13:29;;;;;;;1.00;0.90;;;16.60;97.30;;;;;;5033461;28;20419;-89
2023/09/22 05:15:54;;;;;;;1.17;0.90;;;16.60;97.30;;;;;;5019326;28;20851;-89
2023/09/22 05:18:20;;;;;;;1.00;0.90;;;16.60;97.30;;;;;;5033977;28;20689;-88
2023/09/22 05:20:45;;;;;;;1.03;0.93;;;16.60;97.30;;;;;;5030060;28;20181;-89
2023/09/22 05:23:11;;;;;;;1.00;0.90;;;16.70;97.30;;;;;;5023758;28;20184;-89
2023/09/22 05:25:42;;;;;;;1.00;0.90;;;16.60;97.30;;;;;;5032083;28;20208;-90
2023/09/22 05:28:08;;;;;;;1.00;0.90;;;16.60;97.30;;;;;;5032243;28;20192;-90
2023/09/22 05:30:40;;;;;;;1.00;0.90;;;16.60;97.30;;;;;;5031889;28;20424;-91
2023/09/22 05:33:10;;;;;;;1.57;1.47;;;16.60;97.30;;;;;;5030818;28;20202;-90
2023/09/22 05:35:35;;;;;;;1.20;1.10;;;16.60;97.30;;;;;;5024335;28;20522;-91
2023/09/22 05:38:02;;;;;;;1.00;0.90;;;16.60;97.30;;;;;;5017226;28;20456;-90
2023/09/22 05:40:28;;;;;;;0.90;0.80;;;16.60;97.30;;;;;;5031782;28;20176;-90
2023/09/22 05:42:54;;;;;;;2.30;2.03;;;16.60;97.30;;;;;;5030414;28;20496;-90
2023/09/22 05:45:19;;;;;;;0.90;0.80;;;16.60;97.30;;;;;;5022646;28;20448;-90
2023/09/22 05:47:45;;;;;;;1.10;1.00;;;16.60;97.30;;;;;;5021645;28;20278;-89
2023/09/22 05:50:11;;;;;;;1.10;1.00;;;16.70;97.30;;;;;;5024601;28;20271;-90
2023/09/22 05:52:40;;;;;;;1.13;1.07;;;16.70;97.30;;;;;;5023017;28;20276;-90
2023/09/22 05:55:06;;;;;;;0.90;0.80;;;16.70;97.30;;;;;;5015950;28;20205;-90
2023/09/22 05:57:34;;;;;;;0.90;0.80;;;16.70;97.30;;;;;;5023924;28;20586;-90
2023/09/22 06:00:00;;;;;;;1.03;0.93;;;16.70;97.30;;;;;;5019977;28;20463;-90
2023/09/22 06:02:25;;;;;;;1.23;1.13;;;16.70;97.30;;;;;;5024423;28;20504;-89
2023/09/22 06:04:55;;;;;;;1.00;0.90;;;16.70;97.30;;;;;;5024791;28;20177;-89
2023/09/22 06:07:22;;;;;;;0.90;0.80;;;16.60;97.30;;;;;;5027646;28;20271;-89
2023/09/22 06:09:48;;;;;;;1.10;1.00;;;16.60;97.30;;;;;;5023974;28;20420;-88
2023/09/22 06:12:13;;;;;;;0.93;0.83;;;16.60;97.30;;;;;;5023511;28;20554;-90
2023/09/22 06:14:39;;;;;;;1.33;0.93;;;16.60;97.30;;;;;;5027691;28;20168;-90
2023/09/22 06:17:05;;;;;;;1.30;1.20;;;16.60;97.30;;;;;;5023907;28;20256;-90
2023/09/22 06:19:31;;;;;;;0.87;0.83;;;16.70;97.30;;;;;;5020048;28;20169;-89
2023/09/22 06:21:57;;;;;;;1.00;0.90;;;16.70;97.30;;;;;;5023609;28;20813;-90
2023/09/22 06:24:23;;;;;;;2.90;1.00;;;16.80;97.30;;;;;;5024083;28;20275;-90
2023/09/22 06:26:50;;;;;;;1.30;1.10;;;16.80;97.30;;;;;;5021558;28;20622;-90
2023/09/22 06:29:17;;;;;;;0.97;0.87;;;16.90;97.30;;;;;;5023639;28;20670;-89
2023/09/22 06:31:43;;;;;;;1.67;1.30;;;17.00;97.30;;;;;;5025475;28;20472;-86
2023/09/22 06:34:09;;;;;;;0.90;0.80;;;17.00;97.30;;;;;;5022324;28;20465;-90
2023/09/22 06:36:35;;;;;;;0.90;0.80;;;17.00;97.30;;;;;;5022202;28;20479;-90
2023/09/22 06:39:07;;;;;;;0.90;0.80;;;17.00;97.30;;;;;;5023780;28;20185;-89
2023/09/22 06:41:34;;;;;;;5.70;1.23;;;17.00;97.30;;;;;;5020239;28;20424;-89
2023/09/22 06:44:00;;;;;;;2.87;0.97;;;17.00;97.30;;;;;;5029340;28;20486;-89
2023/09/22 06:46:26;;;;;;;1.00;0.90;;;17.00;97.30;;;;;;5025321;28;20603;-89
2023/09/22 06:48:55;;;;;;;0.97;0.87;;;17.10;97.30;;;;;;5020478;28;20248;-89
2023/09/22 06:51:21;;;;;;;1.57;1.57;;;17.10;97.30;;;;;;5024714;28;20226;-90
2023/09/22 06:53:47;;;;;;;1.07;0.97;;;17.10;97.30;;;;;;5022671;28;20423;-90
2023/09/22 06:56:13;;;;;;;1.27;1.17;;;17.20;97.30;;;;;;5022581;28;20737;-90
2023/09/22 06:58:42;;;;;;;1.27;1.17;;;17.20;97.30;;;;;;5019899;28;20408;-88
2023/09/22 07:01:13;;;;;;;0.97;0.87;;;17.20;97.30;;;;;;5022421;28;20176;-90
2023/09/22 07:03:40;;;;;;;1.20;1.10;;;17.20;97.30;;;;;;5018660;28;20451;-89
2023/09/22 07:06:08;;;;;;;1.57;0.90;;;17.30;97.30;;;;;;5025321;28;20423;-89
2023/09/22 07:08:34;;;;;;;1.13;1.03;;;17.30;97.30;;;;;;5022810;28;20431;-87
2023/09/22 07:11:01;;;;;;;1.00;1.00;;;17.30;97.30;;;;;;5025595;28;20407;-90
2023/09/22 07:13:27;;;;;;;1.30;1.20;;;17.40;97.30;;;;;;5024534;28;20491;-90
2023/09/22 07:15:53;;;;;;;1.20;1.10;;;17.40;97.30;;;;;;5021148;28;20510;-89
2023/09/22 07:18:19;;;;;;;1.10;1.00;;;17.40;97.30;;;;;;5022866;28;20164;-90
2023/09/22 07:20:46;;;;;;;1.07;0.97;;;17.40;97.30;;;;;;5023213;28;20495;-89
2023/09/22 07:23:12;;;;;;;1.07;1.00;;;17.40;97.30;;;;;;5021551;28;20184;-89
2023/09/22 07:25:38;;;;;;;1.07;0.97;;;17.30;97.30;;;;;;5014496;28;20452;-90
2023/09/22 07:28:04;;;;;;;1.00;0.90;;;17.30;97.30;;;;;;5023354;28;20559;-88
2023/09/22 07:30:30;;;;;;;1.10;1.00;;;17.30;97.30;;;;;;5023422;28;20187;-88
2023/09/22 07:32:55;;;;;;;1.10;1.00;;;17.30;97.30;;;;;;5024408;28;20197;-90
2023/09/22 07:35:21;;;;;;;0.90;0.80;;;17.20;97.30;;;;;;5027674;28;20246;-90
2023/09/22 07:37:47;;;;;;;9.70;2.60;;;17.10;97.30;;;;;;5025133;28;20195;-89
2023/09/22 07:40:13;;;;;;;0.90;0.80;;;17.10;97.30;;;;;;5023170;28;20180;-90
2023/09/22 07:42:41;;;;;;;2.10;1.27;;;17.10;97.30;;;;;;5022576;28;20522;-90
2023/09/22 07:45:07;;;;;;;0.90;0.90;;;17.20;97.30;;;;;;5028690;28;20199;-89
2023/09/22 07:47:34;;;;;;;1.40;1.37;;;17.20;97.30;;;;;;5028760;28;20427;-89
2023/09/22 07:50:00;;;;;;;1.30;1.20;;;17.20;97.30;;;;;;5031245;28;20419;-89
2023/09/22 07:52:26;;;;;;;1.00;0.90;;;17.20;97.30;;;;;;5027697;28;20427;-91
2023/09/22 07:54:53;;;;;;;1.00;0.90;;;17.20;97.30;;;;;;5021179;28;20480;-90
2023/09/22 07:57:24;;;;;;;1.10;1.00;;;17.20;97.30;;;;;;5023238;28;20239;-89
2023/09/22 07:59:50;;;;;;;1.40;1.30;;;17.20;97.30;;;;;;5025434;28;20502;-89
2023/09/22 08:02:17;;;;;;;1.00;0.90;;;17.20;97.30;;;;;;5019315;28;20407;-89
2023/09/22 08:04:43;;;;;;;1.30;0.90;;;17.30;97.30;;;;;;5019313;28;20459;-89
2023/09/22 08:07:08;;;;;;;7.03;1.43;;;17.30;97.30;;;;;;5025589;28;20510;-89
2023/09/22 08:09:34;;;;;;;1.10;1.00;;;17.30;97.30;;;;;;5024360;28;20924;-89
2023/09/22 08:11:59;;;;;;;1.47;1.37;;;17.30;97.30;;;;;;5026346;28;20200;-88
2023/09/22 08:14:26;;;;;;;2.30;1.30;;;17.30;97.30;;;;;;5020171;28;20514;-91
2023/09/22 08:16:54;;;;;;;0.93;0.83;;;17.30;97.30;;;;;;5018402;28;20212;-89
2023/09/22 08:19:19;;;;;;;0.90;0.83;;;17.30;97.30;;;;;;5022764;28;20418;-91
2023/09/22 08:21:46;;;;;;;1.60;1.50;;;17.30;97.30;;;;;;5021793;28;20420;-90
2023/09/22 08:24:13;;;;;;;1.20;1.00;;;17.30;97.30;;;;;;5020062;28;20181;-89
2023/09/22 08:26:41;;;;;;;0.90;0.87;;;17.20;97.30;;;;;;5028655;28;20469;-90
2023/09/22 08:29:09;;;;;;;1.20;1.10;;;17.20;97.30;;;;;;5030319;28;20419;-90
2023/09/22 08:31:34;;;;;;;1.30;1.20;;;17.20;97.30;;;;;;5029003;28;20430;-89
2023/09/22 08:34:01;;;;;;;0.90;0.80;;;17.20;97.30;;;;;;5029297;28;20419;-90
2023/09/22 08:36:26;;;;;;;1.07;0.90;;;17.10;97.30;;;;;;5035588;28;20228;-89
2023/09/22 08:38:54;;;;;;;2.40;0.90;;;17.10;97.30;;;;;;5040495;28;20453;-90
2023/09/22 08:41:20;;;;;;;0.90;0.80;;;17.10;97.30;;;;;;5037476;28;20172;-90
2023/09/22 08:43:47;;;;;;;0.93;0.83;;;17.10;97.30;;;;;;5044715;28;20431;-89
2023/09/22 08:46:15;;;;;;;1.03;0.93;;;17.00;97.30;;;;;;5044720;28;20625;-92
2023/09/22 08:48:41;;;;;;;1.10;1.00;;;17.00;97.30;;;;;;5044828;28;20445;-89
2023/09/22 08:51:06;;;;;;;1.73;1.63;;;17.00;97.30;;;;;;5039742;28;20517;-90
2023/09/22 08:53:32;;;;;;;0.97;0.87;;;17.00;97.30;;;;;;5039503;28;20192;-90
2023/09/22 08:55:58;;;;;;;0.90;0.80;;;17.00;97.30;;;;;;5036940;28;20232;-90
2023/09/22 08:58:23;;;;;;;1.07;0.97;;;17.00;97.30;;;;;;5039382;28;20427;-90
2023/09/22 09:00:53;;;;;;;1.20;1.10;;;17.00;97.30;;;;;;5032320;28;20177;-89
2023/09/22 09:03:20;;;;;;;1.83;1.63;;;16.90;97.30;;;;;;5033705;28;20608;-90
2023/09/22 09:05:46;;;;;;;1.37;1.30;;;16.90;97.30;;;;;;5020783;28;20459;-89
2023/09/22 09:08:17;;;;;;;1.30;1.20;;;17.00;97.30;;;;;;5026336;28;20957;-91
2023/09/22 09:10:45;;;;;;;0.93;0.83;;;17.00;97.30;;;;;;5021598;28;20837;-90
2023/09/22 09:13:29;;;;;;;1.10;1.10;;;17.00;97.30;;;;;;5026132;28;20463;-90
2023/09/22 09:15:55;;;;;;;1.00;0.90;;;17.00;97.30;;;;;;5032184;28;20473;-90
2023/09/22 09:18:23;;;;;;;1.30;1.10;;;17.00;97.30;;;;;;5035175;28;20473;-90
2023/09/22 09:21:05;;;;;;;1.50;1.40;;;17.00;97.30;;;;;;5039166;28;20422;-90
2023/09/22 09:23:32;;;;;;;1.13;1.10;;;17.00;97.30;;;;;;5028875;28;20507;-89
2023/09/22 09:25:58;;;;;;;1.53;1.20;;;17.00;97.30;;;;;;5032472;28;20509;-90
2023/09/22 09:28:25;;;;;;;0.90;0.80;;;17.00;97.30;;;;;;5031936;28;20526;-89
2023/09/22 09:30:52;;;;;;;6.30;1.30;;;17.00;97.30;;;;;;5032068;28;20435;-89
2023/09/22 09:33:23;;;;;;;1.00;0.90;;;17.00;97.30;;;;;;5030918;28;20470;-90
2023/09/22 09:35:53;;;;;;;1.10;1.00;;;17.10;97.30;;;;;;5028865;28;20487;-90
2023/09/22 09:38:23;;;;;;;3.37;1.27;;;17.10;97.30;;;;;;5031033;28;20411;-88
2023/09/22 09:40:50;;;;;;;1.00;0.90;;;17.10;97.30;;;;;;5044629;28;20435;-91
2023/09/22 09:43:16;;;;;;;1.00;0.90;;;17.10;97.30;;;;;;5047682;28;20419;-90
2023/09/22 09:46:02;;;;;;;1.03;0.93;;;17.10;97.30;;;;;;5053347;28;20501;-90
2023/09/22 09:48:27;;;;;;;1.07;0.97;;;17.20;97.30;;;;;;5037597;28;20218;-91
2023/09/22 09:50:59;;;;;;;1.00;0.90;;;17.20;97.30;;;;;;5024141;28;20804;-90
2023/09/22 09:53:42;;;;;;;1.40;1.30;;;17.20;97.30;;;;;;5027439;28;20185;-91
2023/09/22 09:56:13;;;;;;;0.93;0.83;;;17.30;97.30;;;;;;5028295;28;20475;-90
2023/09/22 09:58:39;;;;;;;1.33;1.10;;;17.30;97.30;;;;;;5031009;28;20774;-92
2023/09/22 10:01:05;;;;;;;1.37;1.00;;;17.30;97.30;;;;;;5026989;28;20416;-90
2023/09/22 10:03:33;;;;;;;1.30;1.00;;;17.20;97.30;;;;;;5030513;28;20419;-91
2023/09/22 10:06:04;;;;;;;1.30;1.23;;;17.20;97.30;;;;;;5031270;28;20447;-92
2023/09/22 10:08:30;;;;;;;1.00;0.90;;;17.20;97.30;;;;;;5025801;28;20951;-90
2023/09/22 10:11:01;;;;;;;1.10;1.00;;;17.20;97.30;;;;;;5028720;28;20797;-90
2023/09/22 10:13:27;;;;;;;1.00;0.90;;;17.20;97.30;;;;;;5033556;28;20438;-91
2023/09/22 10:16:00;;;;;;;1.73;1.00;;;17.10;97.30;;;;;;5030992;28;20463;-90
2023/09/22 10:18:49;;;;;;;1.00;0.90;;;17.20;97.30;;;;;;5030092;28;20408;-91
2023/09/22 10:21:41;;;;;;;1.13;1.13;;;17.20;97.30;;;;;;5026135;28;20428;-90
2023/09/22 10:24:14;;;;;;;1.00;0.90;;;17.20;97.30;;;;;;5025511;28;20411;-89
2023/09/22 10:26:55;;;;;;;0.97;0.97;;;17.20;97.30;;;;;;5024007;28;20473;-90
2023/09/22 10:29:33;;;;;;;1.20;1.10;;;17.20;97.30;;;;;;5029808;28;20412;-91
2023/09/22 10:32:26;;;;;;;1.20;1.00;;;17.20;97.30;;;;;;5025819;28;20418;-90
2023/09/22 10:34:53;;;;;;;1.00;0.90;;;17.30;97.30;;;;;;5028081;28;20941;-90
2023/09/22 10:37:22;;;;;;;1.03;0.90;;;17.30;97.30;;;;;;5028638;28;20456;-91
2023/09/22 10:40:05;;;;;;;1.20;1.00;;;17.30;97.30;;;;;;5030676;28;20804;-91
2023/09/22 10:42:32;;;;;;;0.80;0.80;;;17.30;97.30;;;;;;5023002;28;20461;-92
2023/09/22 10:45:05;;;;;;;1.10;1.00;;;17.30;97.30;;;;;;5028734;28;20932;-90
2023/09/22 10:47:44;;;;;;;1.10;1.00;;;17.30;97.30;;;;;;5026664;28;20491;-90
2023/09/22 10:50:19;;;;;;;2.20;1.47;;;17.40;97.30;;;;;;5021160;28;20438;-89
2023/09/22 10:53:00;;;;;;;1.00;0.90;;;17.40;97.30;;;;;;5026412;28;20430;-91
2023/09/22 10:55:27;;;;;;;1.20;1.10;;;17.40;97.30;;;;;;5026932;28;20476;-90
2023/09/22 10:57:57;;;;;;;2.43;1.73;;;17.40;97.30;;;;;;5026851;28;20502;-90
2023/09/22 11:00:25;;;;;;;1.67;1.63;;;17.40;97.30;;;;;;5025614;28;20451;-90
2023/09/22 11:02:51;;;;;;;1.30;1.30;;;17.40;97.30;;;;;;5023279;28;20469;-90
2023/09/22 11:05:17;;;;;;;1.10;1.00;;;17.40;97.30;;;;;;5023014;28;20442;-89
2023/09/22 11:07:43;;;;;;;3.20;1.60;;;17.30;97.30;;;;;;5026899;28;20212;-90
2023/09/22 11:10:22;;;;;;;1.37;1.33;;;17.30;97.30;;;;;;5026505;28;20473;-89
2023/09/22 11:12:51;;;;;;;1.57;1.47;;;17.20;97.30;;;;;;5029424;28;20181;-91
2023/09/22 11:15:18;;;;;;;1.10;1.00;;;17.20;97.30;;;;;;5022380;28;20471;-90
2023/09/22 11:17:47;;;;;;;2.50;1.07;;;17.10;97.30;;;;;;5025433;28;20529;-86
2023/09/22 11:20:28;;;;;;;0.93;0.83;;;17.10;97.30;;;;;;5026898;28;20427;-90
2023/09/22 11:22:55;;;;;;;1.13;1.03;;;17.10;97.30;;;;;;5021874;28;20456;-89
2023/09/22 11:25:22;;;;;;;1.20;1.10;;;17.10;97.30;;;;;;5022296;28;20446;-90
2023/09/22 11:27:49;;;;;;;1.10;1.00;;;17.10;97.30;;;;;;5011823;28;20839;-88
2023/09/22 11:30:18;;;;;;;1.00;0.90;;;17.10;97.30;;;;;;5024426;28;20797;-89
2023/09/22 11:32:47;;;;;;;1.07;1.00;;;17.10;97.30;;;;;;5025664;28;20455;-90
2023/09/22 11:35:37;;;;;;;1.10;1.00;;;17.10;97.30;;;;;;5026286;28;20477;-88
2023/09/22 11:38:23;;;;;;;1.10;1.00;;;17.10;97.30;;;;;;5026511;28;20434;-89
2023/09/22 11:40:49;;;;;;;1.23;1.13;;;17.20;97.30;;;;;;5027850;28;20432;-90
2023/09/22 11:43:15;;;;;;;2.70;2.03;;;17.20;97.30;;;;;;5025181;28;20514;-90
2023/09/22 11:45:41;;;;;;;2.40;1.00;;;17.20;97.30;;;;;;5029073;28;20471;-90
2023/09/22 11:48:07;;;;;;;1.07;0.97;;;17.30;97.30;;;;;;5024780;28;20231;-91
2023/09/22 11:50:32;;;;;;;0.90;0.90;;;17.30;97.30;;;;;;5025682;28;20180;-90
2023/09/22 11:53:20;;;;;;;2.13;1.10;;;17.30;97.30;;;;;;5030972;28;20588;-91
2023/09/22 11:55:47;;;;;;;1.00;0.90;;;17.30;97.30;;;;;;5027868;28;20266;-90
2023/09/22 11:58:14;;;;;;;1.07;0.97;;;17.30;97.30;;;;;;5027331;28;20422;-90
2023/09/22 12:00:40;;;;;;;1.20;1.20;;;17.30;97.30;;;;;;5024819;28;20502;-91
2023/09/22 12:03:06;;;;;;;1.83;1.73;;;17.30;97.30;;;;;;5029823;28;20473;-89
2023/09/22 12:05:36;;;;;;;1.00;0.90;;;17.30;97.30;;;;;;5024701;28;20447;-90
2023/09/22 12:08:03;;;;;;;1.00;1.00;;;17.30;97.30;;;;;;5025492;28;20181;-91
2023/09/22 12:10:29;;;;;;;1.23;1.20;;;17.40;97.30;;;;;;5030365;28;20411;-89
2023/09/22 12:12:55;;;;;;;1.00;0.90;;;17.40;97.30;;;;;;5019914;28;20477;-89
2023/09/22 12:15:20;;;;;;;0.93;0.83;;;17.40;97.30;;;;;;5031898;28;20837;-87
2023/09/22 12:17:46;;;;;;;3.03;1.23;;;17.50;97.30;;;;;;5029903;28;20216;-89
2023/09/22 12:20:12;;;;;;;0.90;0.80;;;17.50;97.30;;;;;;5030493;28;20631;-89
2023/09/22 12:22:38;;;;;;;1.00;0.90;;;17.50;97.30;;;;;;5028471;28;20423;-90
2023/09/22 12:25:08;;;;;;;1.17;1.07;;;17.50;97.30;;;;;;5036612;28;20901;-88
2023/09/22 12:27:34;;;;;;;1.03;0.93;;;17.50;97.30;;;;;;5026289;28;20179;-89
2023/09/22 12:30:04;;;;;;;1.30;1.20;;;17.60;97.30;;;;;;5035445;28;20415;-89
2023/09/22 12:32:30;;;;;;;1.10;1.00;;;17.60;97.30;;;;;;5031881;28;20259;-89
2023/09/22 12:34:56;;;;;;;1.03;0.97;;;17.60;97.30;;;;;;5033683;28;20549;-88
2023/09/22 12:37:21;;;;;;;1.00;0.90;;;17.60;97.30;;;;;;5032493;28;20220;-88
2023/09/22 12:39:47;;;;;;;1.20;1.10;;;17.60;97.30;;;;;;5037064;28;20712;-88
2023/09/22 12:42:13;;;;;;;0.70;0.70;;;17.70;97.30;;;;;;5033401;28;20200;-87
2023/09/22 12:44:44;;;;;;;1.30;1.20;;;17.70;97.30;;;;;;5035244;28;20459;-88
2023/09/22 12:47:10;;;;;;;0.90;0.80;;;17.80;97.30;;;;;;5034939;28;20439;-89
2023/09/22 12:49:35;;;;;;;1.73;1.57;;;17.80;97.30;;;;;;5031427;28;20415;-86
2023/09/22 12:52:01;;;;;;;2.50;0.93;;;17.90;97.30;;;;;;5033509;28;20450;-88
2023/09/22 12:54:27;;;;;;;1.20;1.10;;;18.00;97.30;;;;;;5027845;28;20708;-87
2023/09/22 12:56:55;;;;;;;1.17;1.07;;;18.00;97.30;;;;;;5033965;28;20216;-89
2023/09/22 12:59:25;;;;;;;0.90;0.80;;;18.00;97.30;;;;;;5035898;28;20196;-87
2023/09/22 13:02:00;;;;;;;1.00;0.90;;;18.10;97.30;;;;;;5029629;28;20492;-89
2023/09/22 13:04:30;;;;;;;1.30;1.20;;;18.10;97.30;;;;;;5026253;28;20410;-89
2023/09/22 13:06:57;;;;;;;1.33;1.23;;;18.20;97.30;;;;;;5024254;28;20519;-89
2023/09/22 13:09:27;;;;;;;2.00;1.10;;;18.20;97.30;;;;;;5025736;28;20415;-90
2023/09/22 13:11:52;;;;;;;1.10;1.00;;;18.30;97.30;;;;;;5028088;28;20423;-90
2023/09/22 13:14:19;;;;;;;1.03;0.93;;;18.30;97.30;;;;;;5028918;28;20437;-90
2023/09/22 13:16:44;;;;;;;1.00;1.00;;;18.40;97.30;;;;;;5030445;28;20266;-89
2023/09/22 13:19:12;;;;;;;3.47;1.13;;;18.40;97.30;;;;;;5028781;28;20946;-91
2023/09/22 13:21:38;;;;;;;3.27;1.00;;;18.40;97.30;;;;;;5026684;28;20688;-90
2023/09/22 13:24:06;;;;;;;1.00;0.90;;;18.40;97.30;;;;;;5031919;28;20469;-90
2023/09/22 13:26:31;;;;;;;1.00;0.90;;;18.40;97.30;;;;;;5029286;28;20446;-90
2023/09/22 13:28:59;;;;;;;1.00;0.90;;;18.40;97.30;;;;;;5029346;28;20423;-90
2023/09/22 13:31:25;;;;;;;0.90;0.80;;;18.40;97.30;;;;;;5026611;28;20234;-91
2023/09/22 13:33:51;;;;;;;1.00;0.90;;;18.40;97.30;;;;;;5029042;28;20427;-90
2023/09/22 13:36:17;;;;;;;1.00;0.90;;;18.30;97.30;;;;;;5031477;28;20964;-91
2023/09/22 13:38:43;;;;;;;1.00;0.90;;;18.30;97.30;;;;;;5074804;23;20233;-72
2023/09/22 13:41:13;;;;;;;0.90;0.80;;;18.30;97.30;;;;;;4995153;28;20432;-71
2023/09/22 13:43:38;;;;;;;1.87;1.00;;;18.30;97.30;;;;;;4999110;28;20860;-72
2023/09/22 13:46:12;;;;;;;0.80;0.70;;;18.30;97.30;;;;;;5016079;28;20475;-71
2023/09/22 13:48:39;;;;;;;1.00;0.90;;;18.30;97.30;;;;;;5023000;28;20173;-74
2023/09/22 13:51:05;;;;;;;0.97;0.87;;;18.30;97.30;;;;;;5024707;28;20462;-73
2023/09/22 13:53:33;;;;;;;1.53;1.33;;;18.30;97.30;;;;;;5014784;28;20507;-74
2023/09/22 13:55:59;;;;;;;1.00;0.90;;;18.30;97.30;;;;;;5015910;28;20498;-76
2023/09/22 13:58:25;;;;;;;1.83;1.13;;;18.20;97.30;;;;;;5021696;28;20416;-72
2023/09/22 14:00:50;;;;;;;0.90;0.80;;;18.30;97.30;;;;;;5020307;28;20927;-74
2023/09/22 14:03:16;;;;;;;1.13;0.80;;;18.20;97.30;;;;;;5023529;28;20173;-70
2023/09/22 14:05:41;;;;;;;1.10;1.00;;;18.20;97.30;;;;;;5022968;28;20219;-74
2023/09/22 14:08:07;;;;;;;1.10;1.00;;;18.20;97.30;;;;;;5018604;28;20267;-72
2023/09/22 14:10:33;;;;;;;1.00;0.90;;;18.20;97.30;;;;;;5024791;28;20700;-72
2023/09/22 14:12:58;;;;;;;0.97;0.93;;;18.10;97.30;;;;;;5016417;28;20188;-71
2023/09/22 14:15:24;;;;;;;1.20;1.00;;;18.10;97.30;;;;;;5021664;28;20220;-72
2023/09/22 14:17:50;;;;;;;0.90;0.80;;;18.10;97.30;;;;;;5014339;28;20183;-71
2023/09/22 14:20:22;;;;;;;1.23;1.17;;;18.10;97.30;;;;;;5026124;28;20169;-73
2023/09/22 14:22:48;;;;;;;1.43;1.33;;;18.20;97.30;;;;;;5014315;28;20469;-72
2023/09/22 14:25:14;;;;;;;1.20;1.10;;;18.10;97.30;;;;;;5017148;28;20923;-74
2023/09/22 14:27:39;;;;;;;1.10;1.00;;;18.10;97.30;;;;;;5018008;28;20418;-73
2023/09/22 14:30:07;;;;;;;3.00;1.73;;;18.20;97.30;;;;;;5011958;28;20187;-75
2023/09/22 14:32:34;;;;;;;2.90;1.20;;;18.20;97.30;;;;;;5022574;28;20722;-75
2023/09/22 14:34:59;;;;;;;0.90;0.80;;;18.30;97.30;;;;;;5019007;28;20543;-74
2023/09/22 14:37:25;;;;;;;1.20;1.10;;;18.40;97.30;;;;;;5018820;28;21037;-74
2023/09/22 14:39:55;;;;;;;1.00;0.90;;;18.40;97.30;;;;;;5025364;28;20641;-72
2023/09/22 14:42:21;;;;;;;1.10;1.00;;;18.50;97.30;;;;;;5022557;28;20196;-70
2023/09/22 14:44:46;;;;;;;1.20;1.10;;;18.60;97.30;;;;;;5022342;28;20469;-73
2023/09/22 14:47:12;;;;;;;1.00;0.90;;;18.70;97.30;;;;;;5016960;28;20675;-71
2023/09/22 14:49:41;;;;;;;1.00;0.90;;;18.80;97.30;;;;;;5020967;28;20526;-72
2023/09/22 14:52:06;;;;;;;1.00;0.90;;;18.80;97.30;;;;;;5021441;28;20180;-71
2023/09/22 14:54:32;;;;;;;0.90;0.80;;;18.90;97.30;;;;;;5022366;28;20862;-72
2023/09/22 14:56:58;;;;;;;3.33;2.80;;;18.90;97.30;;;;;;5016433;28;20266;-71
2023/09/22 14:59:23;;;;;;;1.73;1.33;;;19.00;97.30;;;;;;5025582;28;20247;-71
2023/09/22 15:01:52;;;;;;;1.30;1.20;;;19.00;97.30;;;;;;5013406;28;20196;-74
2023/09/22 15:04:17;;;;;;;1.00;0.90;;;19.00;97.30;;;;;;5021648;28;20176;-75
2023/09/22 15:06:43;;;;;;;0.90;0.80;;;19.10;97.30;;;;;;5016654;28;20438;-75
2023/09/22 15:09:10;;;;;;;1.47;1.03;;;19.10;97.30;;;;;;5020343;28;20193;-74
2023/09/22 15:11:36;;;;;;;1.30;1.20;;;19.00;97.30;;;;;;5014045;28;20184;-74
2023/09/22 15:14:02;;;;;;;1.00;1.00;;;19.00;97.30;;;;;;5019777;28;20434;-77
2023/09/22 15:16:29;;;;;;;1.00;0.90;;;18.90;97.30;;;;;;5020147;28;20466;-74
2023/09/22 15:18:55;;;;;;;1.00;0.90;;;18.80;97.30;;;;;;5017415;28;20175;-76
2023/09/22 15:21:21;;;;;;;1.87;1.07;;;18.80;97.30;;;;;;5021597;28;20439;-77
2023/09/22 15:23:46;;;;;;;1.00;0.90;;;18.80;97.30;;;;;;5023014;28;20753;-77
2023/09/22 15:26:12;;;;;;;1.30;1.20;;;18.70;97.30;;;;;;5025122;28;20218;-77
2023/09/22 15:28:38;;;;;;;1.30;1.03;;;18.70;97.30;;;;;;5026171;28;20192;-74
2023/09/22 15:31:04;;;;;;;1.00;0.90;;;18.70;97.30;;;;;;5023869;28;20192;-78
2023/09/22 15:33:30;;;;;;;1.00;0.90;;;18.60;97.30;;;;;;5018159;28;20476;-77
2023/09/22 15:35:56;;;;;;;1.00;0.90;;;18.60;97.30;;;;;;5023881;28;20471;-75
2023/09/22 15:38:21;;;;;;;1.20;1.10;;;18.50;97.30;;;;;;5023441;28;20416;-76
2023/09/22 15:40:59;;;;;;;1.10;1.00;;;18.40;97.30;;;;;;5023239;28;20916;-77
2023/09/22 15:43:25;;;;;;;1.10;1.00;;;18.40;97.30;;;;;;5022897;28;20271;-76
2023/09/22 15:45:51;;;;;;;1.00;0.90;;;18.30;97.30;;;;;;5023875;28;20442;-76
2023/09/22 15:48:16;;;;;;;1.30;1.10;;;18.30;97.30;;;;;;5017231;28;20423;-75
2023/09/22 15:50:43;;;;;;;1.63;1.13;;;18.30;97.30;;;;;;5026252;28;20279;-76
2023/09/22 15:53:09;;;;;;;1.10;1.00;;;18.30;97.30;;;;;;5021537;28;20184;-76
2023/09/22 15:55:35;;;;;;;1.40;1.00;;;18.30;97.30;;;;;;5024127;28;20540;-76
2023/09/22 15:58:04;;;;;;;1.27;1.17;;;18.30;97.30;;;;;;5022202;28;20598;-76
2023/09/22 16:00:29;;;;;;;1.20;1.10;;;18.20;97.30;;;;;;5018185;28;20502;-76
2023/09/22 16:02:55;;;;;;;1.40;1.30;;;18.20;97.30;;;;;;5023283;28;20517;-77
2023/09/22 16:05:20;;;;;;;0.90;0.80;;;18.20;97.30;;;;;;5022328;28;20201;-76
2023/09/22 16:07:49;;;;;;;1.00;0.90;;;18.20;97.30;;;;;;5024209;28;20185;-77
2023/09/22 16:10:15;;;;;;;1.00;0.90;;;18.20;97.30;;;;;;5019136;28;20181;-77
2023/09/22 16:12:40;;;;;;;1.50;1.40;;;18.20;97.30;;;;;;5020181;28;20951;-74
2023/09/22 16:15:10;;;;;;;0.90;0.80;;;18.10;97.30;;;;;;5017009;28;20204;-76
2023/09/22 16:17:35;;;;;;;0.90;0.80;;;18.10;97.30;;;;;;5023186;28;20172;-76
2023/09/22 16:20:01;;;;;;;1.00;0.90;;;18.10;97.30;;;;;;5010723;28;20435;-76
2023/09/22 16:22:26;;;;;;;1.17;1.07;;;18.10;97.30;;;;;;5017845;28;20216;-77
2023/09/22 16:24:52;;;;;;;1.00;0.90;;;18.10;97.30;;;;;;5025303;28;20201;-76
2023/09/22 16:27:17;;;;;;;2.00;1.23;;;18.00;97.30;;;;;;5019485;28;20700;-74
2023/09/22 16:29:43;;;;;;;0.90;0.80;;;18.00;97.30;;;;;;5028589;28;20199;-76
2023/09/22 16:32:09;;;;;;;1.00;0.90;;;18.00;97.30;;;;;;5027872;28;20184;-76
2023/09/22 16:34:35;;;;;;;2.23;1.33;;;18.00;97.30;;;;;;5024753;28;20710;-77
2023/09/22 16:37:00;;;;;;;3.80;1.43;;;18.00;97.30;;;;;;5025280;28;20549;-77
2023/09/22 16:39:26;;;;;;;1.17;1.07;;;18.00;97.30;;;;;;5027251;28;20299;-76
2023/09/22 16:41:51;;;;;;;0.90;0.80;;;18.00;97.30;;;;;;5028229;28;20180;-76
2023/09/22 16:44:17;;;;;;;1.00;0.90;;;18.00;97.30;;;;;;5026592;28;20643;-77
2023/09/22 16:46:43;;;;;;;1.20;1.10;;;18.00;97.30;;;;;;5028560;28;20813;-77
2023/09/22 16:49:09;;;;;;;1.43;0.90;;;18.00;97.30;;;;;;5027377;28;20541;-75
2023/09/22 16:51:35;;;;;;;1.10;1.00;;;18.00;97.30;;;;;;5028651;28;20177;-77